KBBD - Brady/Curtis Fld, TX, US

Issued at 2330 UTC 29 May 2020
Updated at 2339 UTC 29 May 2020
Potential Impact None Slight Moderate High
Time2335Z 30/00Z 30/01Z 30/02Z 30/03Z 30/04Z 30/05Z 30/06Z 30/07Z 30/08Z 30/09Z 30/10Z 30/11Z 30/12Z>>
Type OBS PRVL PRVL PRVL PRVL PRVL PRVL PRVL PRVL PRVL PRVL PRVL PRVL PRVL
VIS 10 >6 >6 >6 >6 >6 >6 >6 >6 >6 >6 >6 >6 >6
CIG -- -- -- -- -- -- -- -- -- -- -- -- -- --
Cover CLR SKC SKC SKC SKC SKC SKC SKC SKC SKC SKC SKC SKC SKC
FltCat VFR VFR VFR VFR VFR VFR VFR VFR VFR VFR VFR VFR VFR VFR
WX -- -- -- -- -- -- -- -- -- -- -- -- -- --
WDir 50 50 50 VRB VRB VRB VRB VRB VRB VRB VRB VRB VRB VRB
WSpd 10 9 9 4 4 4 4 4 4 4 4 4 4 4
WGst -- -- -- -- -- -- -- -- -- -- -- -- -- --
Raw TAF
KBBD 292330Z 3000/3024 05009KT P6SM SKC
  FM300200 VRB04KT P6SM SKC


Raw METAR
KBBD 292335Z AUTO 05010KT 10SM CLR 28/10 A3014 RMK AO2
KBBD 292315Z AUTO 05010KT 10SM CLR 28/10 A3015 RMK AO2
KBBD 292255Z AUTO 08010G15KT 050V120 10SM CLR 28/10 A3015 RMK AO2
KBBD 292235Z AUTO 07008G13KT 10SM CLR 28/10 A3016 RMK AO2
KBBD 292210Z AUTO 06010G17KT 10SM CLR 28/11 A3016 RMK AO2
KBBD 292155Z AUTO 07010G16KT 10SM CLR 28/11 A3016 RMK AO2
KBBD 292135Z AUTO 08011KT 10SM CLR 28/10 A3017 RMK AO2
KBBD 292115Z AUTO 07010G16KT 10SM CLR 28/12 A3017 RMK AO2
KBBD 292055Z AUTO 07008G17KT 050V120 10SM CLR 28/12 A3018 RMK AO2
KBBD 292035Z AUTO 07008G15KT 10SM CLR 28/12 A3018 RMK AO2

METAR Board
Radar Display
Forecast Discussion
For situational awareness. Not to be used for flight planning purposes.